Time;durP1;ratioP1;P1;durP2;ratioP2;P2;SDS_P1;SDS_P2;PMS_P1;PMS_P2;Temp;Humidity;BMP_temperature;BMP_pressure;BME280_temperature;BME280_humidity;BME280_pressure;Samples;Min_cycle;Max_cycle;Signal;HPM_P1;HPM_P2
2021/01/04 00:00:33;;;;;;;35.67;20.60;;;3.50;99.90;;;;;;5058631;28;20273;-82
2021/01/04 00:03:35;;;;;;;32.50;19.98;;;3.70;99.90;;;;;;5050015;28;20203;-82
2021/01/04 00:06:21;;;;;;;32.75;16.15;;;3.60;99.90;;;;;;5051366;28;20599;-82
2021/01/04 00:09:05;;;;;;;30.77;17.67;;;3.70;99.90;;;;;;5049348;28;20211;-82
2021/01/04 00:11:42;;;;;;;33.60;18.45;;;3.70;99.90;;;;;;5067559;28;20206;-82
2021/01/04 00:14:33;;;;;;;35.35;20.42;;;3.60;99.90;;;;;;5055803;28;20226;-80
2021/01/04 00:17:08;;;;;;;37.05;20.70;;;3.70;99.90;;;;;;5047372;28;20226;-81
2021/01/04 00:19:43;;;;;;;33.72;22.60;;;3.60;99.90;;;;;;5065190;28;20210;-82
2021/01/04 00:22:16;;;;;;;38.40;21.83;;;3.40;99.90;;;;;;5065821;28;20215;-81
2021/01/04 00:24:49;;;;;;;36.80;20.45;;;3.50;99.90;;;;;;5056717;28;20257;-81
2021/01/04 00:27:26;;;;;;;35.72;21.48;;;3.50;99.90;;;;;;5045983;28;20290;-81
2021/01/04 00:29:57;;;;;;;31.45;18.25;;;3.60;99.90;;;;;;5063048;28;20206;-82
2021/01/04 00:32:33;;;;;;;35.38;22.48;;;3.40;99.90;;;;;;5064898;28;20210;-82
2021/01/04 00:35:08;;;;;;;42.10;21.48;;;3.60;99.90;;;;;;5064998;28;20235;-81
2021/01/04 00:38:01;;;;;;;38.38;20.17;;;3.70;99.90;;;;;;5049400;28;20206;-82
2021/01/04 00:40:40;;;;;;;34.17;19.00;;;3.50;99.90;;;;;;5028993;28;20238;-82
2021/01/04 00:43:18;;;;;;;40.95;22.52;;;3.40;99.90;;;;;;5040692;28;20238;-82
2021/01/04 00:45:46;;;;;;;51.55;28.85;;;3.30;99.90;;;;;;5036450;28;20231;-82
2021/01/04 00:48:20;;;;;;;41.22;23.90;;;3.40;99.90;;;;;;5038825;28;20238;-81
2021/01/04 00:51:10;;;;;;;43.42;25.90;;;3.50;99.90;;;;;;5039927;28;20215;-81
2021/01/04 00:53:42;;;;;;;42.85;23.80;;;3.50;99.90;;;;;;5035437;28;20298;-81
2021/01/04 00:56:30;;;;;;;40.88;22.20;;;3.30;99.90;;;;;;5037484;28;20190;-82
2021/01/04 00:59:06;;;;;;;41.58;25.40;;;3.50;99.90;;;;;;5034673;28;20298;-82
2021/01/04 01:01:44;;;;;;;49.03;25.33;;;3.60;99.90;;;;;;5046496;28;20274;-81
2021/01/04 01:04:24;;;;;;;45.78;23.90;;;3.50;99.90;;;;;;5062203;28;20743;-81
2021/01/04 01:06:58;;;;;;;48.20;25.13;;;3.40;99.90;;;;;;5050943;28;20218;-81
2021/01/04 01:09:30;;;;;;;43.60;26.05;;;3.40;99.90;;;;;;5033528;28;20657;-81
2021/01/04 01:12:24;;;;;;;43.13;24.70;;;3.20;99.90;;;;;;5036559;28;20237;-81
2021/01/04 01:15:15;;;;;;;42.35;24.38;;;3.40;99.90;;;;;;5042267;28;20271;-81
2021/01/04 01:18:08;;;;;;;44.22;24.38;;;3.50;99.90;;;;;;5053150;28;20209;-82
2021/01/04 01:20:39;;;;;;;43.45;25.90;;;3.60;99.90;;;;;;5039217;28;20203;-82
2021/01/04 01:23:08;;;;;;;48.15;26.17;;;3.50;99.90;;;;;;5033331;28;20298;-81
2021/01/04 01:25:42;;;;;;;49.88;27.45;;;3.70;99.90;;;;;;5033572;28;20292;-81
2021/01/04 01:28:46;;;;;;;42.88;25.40;;;3.70;99.90;;;;;;5037418;28;20195;-81
2021/01/04 01:31:32;;;;;;;50.13;27.90;;;3.60;99.90;;;;;;5055883;28;20203;-81
2021/01/04 01:34:15;;;;;;;50.47;27.70;;;3.70;99.90;;;;;;5052950;28;20234;-82
2021/01/04 01:37:02;;;;;;;45.58;27.05;;;3.60;99.90;;;;;;5013462;28;20212;-82
2021/01/04 01:40:03;;;;;;;46.38;26.88;;;3.60;99.90;;;;;;5013452;28;20208;-82
2021/01/04 01:42:46;;;;;;;47.22;26.98;;;3.40;99.90;;;;;;5030437;28;20198;-82
2021/01/04 01:45:19;;;;;;;43.47;25.27;;;3.60;99.90;;;;;;5061174;28;20705;-82
2021/01/04 01:47:53;;;;;;;47.25;26.60;;;3.50;99.90;;;;;;5035696;28;20222;-82
2021/01/04 01:50:38;;;;;;;49.20;26.90;;;3.50;99.90;;;;;;5033789;28;20203;-83
2021/01/04 01:53:14;;;;;;;40.75;22.95;;;3.70;99.90;;;;;;5040370;28;20672;-84
2021/01/04 01:55:57;;;;;;;44.97;24.65;;;3.50;99.90;;;;;;5053075;28;20234;-85
2021/01/04 01:58:50;;;;;;;46.03;25.70;;;3.50;99.90;;;;;;5035540;28;20210;-81
2021/01/04 02:01:25;;;;;;;42.17;25.23;;;3.50;99.90;;;;;;5048306;28;20294;-80
2021/01/04 02:04:00;;;;;;;44.88;24.30;;;3.40;99.90;;;;;;5057253;28;20199;-80
2021/01/04 02:06:49;;;;;;;42.03;24.65;;;3.70;99.90;;;;;;5042771;28;20222;-79
2021/01/04 02:09:21;;;;;;;42.50;25.15;;;3.50;99.90;;;;;;5044345;28;20213;-80
2021/01/04 02:12:00;;;;;;;43.20;22.88;;;3.50;99.90;;;;;;5039247;28;20596;-80
2021/01/04 02:14:34;;;;;;;42.05;24.67;;;3.60;99.90;;;;;;5040991;28;20260;-81
2021/01/04 02:17:18;;;;;;;44.03;26.48;;;3.60;99.90;;;;;;5037259;28;20203;-81
2021/01/04 02:20:17;;;;;;;42.78;23.73;;;3.60;99.90;;;;;;5038779;28;20257;-80
2021/01/04 02:23:07;;;;;;;39.10;22.77;;;3.70;99.90;;;;;;5049794;28;20462;-82
2021/01/04 02:25:41;;;;;;;42.83;24.20;;;3.60;99.90;;;;;;5064131;28;20245;-81
2021/01/04 02:28:13;;;;;;;45.55;26.50;;;3.90;99.90;;;;;;5073104;28;20247;-81
2021/01/04 02:30:40;;;;;;;42.75;24.83;;;3.50;99.90;;;;;;5074012;28;20648;-82
2021/01/04 02:33:08;;;;;;;40.50;24.85;;;3.60;99.90;;;;;;5059754;28;20262;-81
2021/01/04 02:35:39;;;;;;;43.08;24.55;;;3.60;99.90;;;;;;5047005;28;20239;-82
2021/01/04 02:38:06;;;;;;;49.55;27.95;;;3.60;99.90;;;;;;5053057;28;20211;-82
2021/01/04 02:40:34;;;;;;;41.72;24.58;;;3.70;99.90;;;;;;5046253;28;20211;-82
2021/01/04 02:43:00;;;;;;;44.80;25.75;;;3.60;99.90;;;;;;5057759;28;20199;-82
2021/01/04 02:45:30;;;;;;;45.50;24.75;;;3.40;99.90;;;;;;5047365;28;20255;-82
2021/01/04 02:48:15;;;;;;;41.38;25.83;;;3.50;99.90;;;;;;5056697;28;20218;-83
2021/01/04 02:51:00;;;;;;;41.78;23.80;;;3.30;99.90;;;;;;5069986;28;20214;-82
2021/01/04 02:54:08;;;;;;;43.78;25.38;;;3.40;99.90;;;;;;5057577;28;20225;-82
2021/01/04 02:56:42;;;;;;;40.20;23.85;;;3.50;99.90;;;;;;5045620;28;20559;-81
2021/01/04 02:59:46;;;;;;;41.60;24.63;;;3.40;99.90;;;;;;5064925;28;20206;-82
2021/01/04 03:02:17;;;;;;;42.17;24.23;;;3.50;99.90;;;;;;5036542;28;20294;-81
2021/01/04 03:04:47;;;;;;;40.97;23.83;;;3.70;99.90;;;;;;5049037;28;20227;-82
2021/01/04 03:07:17;;;;;;;47.45;25.73;;;3.50;99.90;;;;;;5068565;28;20257;-82
2021/01/04 03:09:45;;;;;;;43.20;25.08;;;3.40;99.90;;;;;;5064964;28;20238;-82
2021/01/04 03:12:17;;;;;;;42.30;25.55;;;3.50;99.90;;;;;;5064451;28;20209;-82
2021/01/04 03:15:07;;;;;;;45.40;25.58;;;3.30;99.90;;;;;;5046076;28;20238;-82
2021/01/04 03:17:55;;;;;;;42.95;24.75;;;3.50;99.90;;;;;;5054232;28;20286;-83
2021/01/04 03:20:24;;;;;;;43.10;24.10;;;3.60;99.90;;;;;;5064487;28;20241;-82
2021/01/04 03:22:52;;;;;;;39.90;24.75;;;3.70;99.90;;;;;;5043580;28;20203;-82
2021/01/04 03:25:29;;;;;;;44.17;25.70;;;3.50;99.90;;;;;;5031822;28;20299;-82
2021/01/04 03:27:57;;;;;;;44.22;25.85;;;3.80;99.90;;;;;;5044341;28;20218;-83
2021/01/04 03:30:23;;;;;;;42.45;24.63;;;3.70;99.90;;;;;;5040968;28;20250;-83
2021/01/04 03:32:50;;;;;;;45.88;23.42;;;3.90;99.90;;;;;;5038160;28;20207;-82
2021/01/04 03:35:17;;;;;;;41.08;25.30;;;3.80;99.90;;;;;;5032582;28;20231;-82
2021/01/04 03:37:44;;;;;;;40.53;24.10;;;3.50;99.90;;;;;;5031082;28;20305;-83
2021/01/04 03:40:12;;;;;;;38.53;22.60;;;3.40;99.90;;;;;;5035200;28;20210;-82
2021/01/04 03:42:38;;;;;;;38.05;22.08;;;3.50;99.90;;;;;;5033617;28;20289;-82
2021/01/04 03:45:07;;;;;;;38.90;23.42;;;3.60;99.90;;;;;;5039755;28;20231;-83
2021/01/04 03:47:34;;;;;;;41.03;23.83;;;3.50;99.90;;;;;;5051610;28;20382;-82
2021/01/04 03:50:05;;;;;;;41.25;22.75;;;3.50;99.90;;;;;;5051295;28;20198;-82
2021/01/04 03:52:31;;;;;;;40.05;24.10;;;3.60;99.90;;;;;;5051440;28;20206;-82
2021/01/04 03:54:58;;;;;;;41.38;24.70;;;3.40;99.90;;;;;;5035446;28;20219;-82
2021/01/04 03:57:24;;;;;;;41.10;23.35;;;3.50;99.90;;;;;;5030971;28;20203;-83
2021/01/04 03:59:51;;;;;;;43.65;26.15;;;3.70;99.90;;;;;;5044395;28;20206;-83
2021/01/04 04:02:19;;;;;;;38.03;22.80;;;3.40;99.90;;;;;;5053475;28;20206;-82
2021/01/04 04:04:45;;;;;;;39.40;23.98;;;3.40;99.90;;;;;;5037309;28;20238;-83
2021/01/04 04:07:12;;;;;;;42.08;25.20;;;3.70;99.90;;;;;;5030702;28;20223;-82
2021/01/04 04:09:39;;;;;;;40.03;24.23;;;3.60;99.90;;;;;;5029731;28;20223;-83
2021/01/04 04:12:06;;;;;;;38.15;24.90;;;3.60;99.90;;;;;;5030443;28;20217;-82
2021/01/04 04:14:33;;;;;;;37.35;22.27;;;3.60;99.90;;;;;;5030916;28;20223;-82
2021/01/04 04:17:00;;;;;;;37.35;21.50;;;3.60;99.90;;;;;;5030508;28;20199;-82
2021/01/04 04:19:27;;;;;;;41.67;24.80;;;3.60;99.90;;;;;;5040734;28;20209;-82
2021/01/04 04:21:57;;;;;;;39.03;23.75;;;3.60;99.90;;;;;;5050580;28;20575;-82
2021/01/04 04:24:23;;;;;;;47.70;25.70;;;3.70;99.90;;;;;;5050551;28;20238;-83
2021/01/04 04:26:52;;;;;;;38.80;20.92;;;3.70;99.90;;;;;;5044075;28;20595;-82
2021/01/04 04:29:19;;;;;;;40.17;22.30;;;3.60;99.90;;;;;;5054188;28;20304;-82
2021/01/04 04:31:47;;;;;;;39.47;23.52;;;3.60;99.90;;;;;;5055032;28;20217;-83
2021/01/04 04:34:14;;;;;;;44.22;25.80;;;3.70;99.90;;;;;;5035422;28;20239;-82
2021/01/04 04:36:43;;;;;;;42.42;24.85;;;3.50;99.90;;;;;;5035743;28;20253;-83
2021/01/04 04:39:11;;;;;;;42.55;25.40;;;3.70;99.90;;;;;;5054021;28;20202;-82
2021/01/04 04:41:42;;;;;;;39.95;23.02;;;3.80;99.90;;;;;;5046563;28;20206;-83
2021/01/04 04:44:18;;;;;;;39.70;24.67;;;3.60;99.90;;;;;;5025373;28;20227;-81
2021/01/04 04:46:58;;;;;;;42.22;25.25;;;3.60;99.90;;;;;;5029148;28;20235;-82
2021/01/04 04:49:59;;;;;;;41.28;27.10;;;3.40;99.90;;;;;;5041387;28;20211;-82
2021/01/04 04:52:55;;;;;;;42.70;25.10;;;3.50;99.90;;;;;;5036037;28;20215;-83
2021/01/04 04:55:39;;;;;;;43.88;26.00;;;3.70;99.90;;;;;;5042055;28;20605;-82
2021/01/04 04:58:20;;;;;;;44.58;25.60;;;3.80;99.90;;;;;;5060270;28;20387;-82
2021/01/04 05:01:10;;;;;;;45.47;24.80;;;3.60;99.90;;;;;;5047843;28;20275;-81
2021/01/04 05:04:17;;;;;;;40.53;23.50;;;3.60;99.90;;;;;;5034255;28;20253;-83
2021/01/04 05:06:47;;;;;;;45.58;25.17;;;3.60;99.90;;;;;;4992872;28;20255;-82
2021/01/04 05:09:43;;;;;;;40.67;24.35;;;3.60;99.90;;;;;;4991464;28;20228;-82
2021/01/04 05:12:26;;;;;;;39.95;26.08;;;3.40;99.90;;;;;;5020404;28;20342;-82
2021/01/04 05:14:56;;;;;;;43.75;25.13;;;3.60;99.90;;;;;;5035548;28;20227;-82
2021/01/04 05:18:01;;;;;;;41.08;25.35;;;3.40;99.90;;;;;;5033126;28;20199;-82
2021/01/04 05:21:06;;;;;;;40.03;23.08;;;3.40;99.90;;;;;;5049228;28;20211;-82
2021/01/04 05:24:00;;;;;;;43.55;26.13;;;3.50;99.90;;;;;;5052170;28;20684;-82
2021/01/04 05:26:52;;;;;;;43.13;25.33;;;3.50;99.90;;;;;;5026267;28;20232;-81
2021/01/04 05:29:45;;;;;;;42.95;25.60;;;3.50;99.90;;;;;;5033744;28;20203;-81
2021/01/04 05:32:35;;;;;;;40.03;24.50;;;3.50;99.90;;;;;;5044645;28;20253;-81
2021/01/04 05:35:06;;;;;;;40.03;23.20;;;3.50;99.90;;;;;;5064328;28;20238;-81
2021/01/04 05:37:52;;;;;;;38.05;23.80;;;3.80;99.90;;;;;;5060838;28;20191;-80
2021/01/04 05:40:42;;;;;;;36.20;23.30;;;3.70;99.90;;;;;;5050108;28;20207;-80
2021/01/04 05:43:20;;;;;;;40.13;23.23;;;3.90;99.90;;;;;;5051243;28;20203;-80
2021/01/04 05:45:54;;;;;;;40.45;21.63;;;3.70;99.90;;;;;;5039572;28;20233;-82
2021/01/04 05:48:54;;;;;;;41.45;23.55;;;3.60;99.90;;;;;;5061532;28;20312;-82
2021/01/04 05:51:24;;;;;;;38.80;22.92;;;3.50;99.90;;;;;;5041465;28;20203;-82
2021/01/04 05:53:51;;;;;;;40.17;23.10;;;3.60;99.90;;;;;;5034378;28;20546;-82
2021/01/04 05:56:22;;;;;;;32.47;18.85;;;3.70;99.90;;;;;;5033741;28;20207;-82
2021/01/04 05:58:51;;;;;;;35.83;22.77;;;3.80;99.90;;;;;;5033558;28;20214;-83
2021/01/04 06:01:26;;;;;;;43.67;25.42;;;3.90;99.90;;;;;;5033418;28;20527;-83
2021/01/04 06:03:58;;;;;;;38.40;20.13;;;3.50;99.90;;;;;;5048424;28;20237;-83
2021/01/04 06:06:31;;;;;;;37.55;20.98;;;3.60;99.90;;;;;;5035289;28;20281;-83
2021/01/04 06:09:04;;;;;;;38.47;24.60;;;3.80;99.90;;;;;;5038052;28;20218;-83
2021/01/04 06:11:31;;;;;;;35.28;20.92;;;3.60;99.90;;;;;;5037142;28;20211;-83
2021/01/04 06:14:04;;;;;;;33.58;20.88;;;3.60;99.90;;;;;;5049604;28;20206;-83
2021/01/04 06:16:32;;;;;;;39.08;21.45;;;3.60;99.90;;;;;;5042846;28;20285;-83
2021/01/04 06:19:08;;;;;;;38.63;22.17;;;3.70;99.90;;;;;;5034501;28;20218;-83
2021/01/04 06:21:49;;;;;;;43.65;23.25;;;3.50;99.90;;;;;;5033296;28;20304;-83
2021/01/04 06:24:24;;;;;;;39.67;21.58;;;3.50;99.90;;;;;;5032911;28;20618;-83
2021/01/04 06:26:52;;;;;;;33.15;20.50;;;3.70;99.90;;;;;;5058702;28;20218;-83
2021/01/04 06:29:31;;;;;;;38.97;20.38;;;3.70;99.90;;;;;;5040365;28;20199;-83
2021/01/04 06:31:59;;;;;;;43.45;24.60;;;3.50;99.90;;;;;;5043365;28;20579;-83
2021/01/04 06:34:30;;;;;;;44.97;23.23;;;3.70;99.90;;;;;;5036162;28;20281;-83
2021/01/04 06:37:01;;;;;;;38.13;23.52;;;3.70;99.90;;;;;;5032124;28;20257;-83
2021/01/04 06:39:30;;;;;;;42.90;24.70;;;3.40;99.90;;;;;;5032850;28;20210;-83
2021/01/04 06:42:14;;;;;;;37.65;23.60;;;3.50;99.90;;;;;;5033615;28;20279;-83
2021/01/04 06:44:46;;;;;;;43.42;25.90;;;3.40;99.90;;;;;;5031486;28;20238;-83
2021/01/04 06:47:51;;;;;;;43.30;25.27;;;3.70;99.90;;;;;;5041421;28;20280;-83
2021/01/04 06:50:26;;;;;;;44.95;25.75;;;3.70;99.90;;;;;;5040067;28;20432;-82
2021/01/04 06:53:22;;;;;;;50.05;29.77;;;3.50;99.90;;;;;;5050864;28;20644;-82
2021/01/04 06:56:43;;;;;;;47.42;26.50;;;3.40;99.90;;;;;;5059670;28;20238;-81
2021/01/04 06:59:34;;;;;;;44.25;25.10;;;3.60;99.90;;;;;;5055618;28;20191;-82
2021/01/04 07:02:28;;;;;;;42.83;26.38;;;3.80;99.90;;;;;;5040886;28;20199;-81
2021/01/04 07:05:28;;;;;;;44.38;26.65;;;3.80;99.90;;;;;;5053629;28;20227;-80
2021/01/04 07:08:09;;;;;;;40.28;24.60;;;3.70;99.90;;;;;;5040886;28;20231;-81
2021/01/04 07:10:55;;;;;;;44.92;28.02;;;3.50;99.90;;;;;;5042184;28;20629;-81
2021/01/04 07:13:43;;;;;;;43.60;26.35;;;3.50;99.90;;;;;;5054889;28;20216;-81
2021/01/04 07:16:38;;;;;;;42.80;25.52;;;3.80;99.90;;;;;;5063974;28;20187;-81
2021/01/04 07:19:22;;;;;;;39.70;24.42;;;3.80;99.90;;;;;;5050533;28;20207;-81
2021/01/04 07:21:55;;;;;;;41.72;25.13;;;3.50;99.90;;;;;;5051271;28;20278;-81
2021/01/04 07:24:43;;;;;;;43.60;25.02;;;3.50;99.90;;;;;;5044132;28;20291;-82
2021/01/04 07:27:41;;;;;;;42.17;22.58;;;3.60;99.90;;;;;;5038646;28;20228;-83
2021/01/04 07:30:18;;;;;;;40.20;24.90;;;3.80;99.90;;;;;;5040827;28;20218;-83
2021/01/04 07:32:53;;;;;;;40.08;24.25;;;3.70;99.90;;;;;;5038872;28;20269;-82
2021/01/04 07:35:25;;;;;;;44.85;26.38;;;3.50;99.90;;;;;;5037659;28;20238;-82
2021/01/04 07:38:05;;;;;;;44.50;25.98;;;3.50;99.90;;;;;;5045001;28;20227;-83
2021/01/04 07:40:50;;;;;;;45.08;25.25;;;3.60;99.90;;;;;;5049118;28;20194;-82
2021/01/04 07:43:57;;;;;;;46.85;25.73;;;3.60;99.90;;;;;;5040492;28;20724;-82
2021/01/04 07:47:02;;;;;;;41.30;23.42;;;3.60;99.90;;;;;;5048542;28;20307;-82
2021/01/04 07:50:23;;;;;;;47.72;25.98;;;3.60;99.90;;;;;;5038241;28;20198;-83
2021/01/04 07:53:30;;;;;;;43.17;24.38;;;3.60;99.90;;;;;;5037155;28;20234;-83
2021/01/04 07:56:29;;;;;;;43.30;24.60;;;3.70;99.90;;;;;;5041582;28;20322;-82
2021/01/04 07:59:36;;;;;;;40.10;24.30;;;3.50;99.90;;;;;;5009187;28;20206;-83
2021/01/04 08:02:39;;;;;;;36.70;20.95;;;3.60;99.90;;;;;;5045479;28;20695;-83
2021/01/04 08:05:43;;;;;;;42.40;23.73;;;3.60;99.90;;;;;;5066062;28;20227;-81
2021/01/04 08:08:28;;;;;;;42.40;25.27;;;3.60;99.90;;;;;;5053190;28;20281;-82
2021/01/04 08:11:29;;;;;;;38.03;18.80;;;3.30;99.90;;;;;;5052388;28;20215;-82
2021/01/04 08:14:31;;;;;;;38.47;20.52;;;3.40;99.90;;;;;;5003670;28;20204;-81
2021/01/04 08:17:04;;;;;;;36.20;22.75;;;3.60;99.90;;;;;;5054624;28;20199;-81
2021/01/04 08:19:36;;;;;;;43.03;23.92;;;3.70;99.90;;;;;;5040655;28;20223;-83
2021/01/04 08:22:12;;;;;;;42.33;25.85;;;3.70;99.90;;;;;;5039493;28;20546;-76
2021/01/04 08:24:42;;;;;;;41.80;24.38;;;3.50;99.90;;;;;;5051932;28;20309;-75
2021/01/04 08:27:26;;;;;;;42.72;25.05;;;3.50;99.90;;;;;;5046259;28;20222;-75
2021/01/04 08:30:07;;;;;;;40.35;23.75;;;3.60;99.90;;;;;;5040283;28;20261;-76
2021/01/04 08:32:46;;;;;;;40.78;22.95;;;3.60;99.90;;;;;;5032447;28;20211;-76
2021/01/04 08:35:17;;;;;;;39.03;23.20;;;3.60;99.90;;;;;;5041374;28;20238;-75
2021/01/04 08:37:46;;;;;;;43.28;26.40;;;3.70;99.90;;;;;;5042942;28;20207;-77
2021/01/04 08:40:23;;;;;;;39.47;24.67;;;3.60;99.90;;;;;;5025441;28;20269;-79
2021/01/04 08:43:02;;;;;;;35.45;21.63;;;3.60;99.90;;;;;;5054730;28;20614;-80
2021/01/04 08:45:35;;;;;;;38.58;21.30;;;3.60;99.90;;;;;;5035345;28;20230;-76
2021/01/04 08:48:13;;;;;;;40.70;22.20;;;3.60;99.90;;;;;;5033065;28;20237;-77
2021/01/04 08:50:45;;;;;;;40.08;23.02;;;3.60;99.90;;;;;;5032401;28;20207;-74
2021/01/04 08:53:16;;;;;;;41.95;23.75;;;3.70;99.90;;;;;;5038821;28;20214;-75
2021/01/04 08:55:43;;;;;;;39.85;21.40;;;3.80;99.90;;;;;;5049121;28;20593;-80
2021/01/04 08:58:38;;;;;;;42.47;25.35;;;3.60;99.90;;;;;;5039022;28;20203;-78
2021/01/04 09:01:18;;;;;;;39.90;23.85;;;3.60;99.90;;;;;;5034903;28;20214;-75
2021/01/04 09:03:45;;;;;;;36.17;23.33;;;3.80;99.90;;;;;;5045245;28;20202;-79
2021/01/04 09:06:28;;;;;;;39.58;22.58;;;3.70;99.90;;;;;;5040166;28;20226;-81
2021/01/04 09:09:06;;;;;;;40.05;23.98;;;3.80;99.90;;;;;;5042663;28;20298;-81
2021/01/04 09:11:38;;;;;;;37.90;21.02;;;3.80;99.90;;;;;;5054408;28;20253;-85
2021/01/04 09:14:16;;;;;;;39.58;21.50;;;3.90;99.90;;;;;;5054559;28;20223;-83
2021/01/04 09:16:45;;;;;;;39.08;23.10;;;3.90;99.90;;;;;;5050335;28;20195;-83
2021/01/04 09:19:23;;;;;;;41.47;24.45;;;3.90;99.90;;;;;;5059833;28;20215;-84
2021/01/04 09:21:51;;;;;;;40.42;22.67;;;3.90;99.90;;;;;;5038216;28;20203;-83
2021/01/04 09:24:34;;;;;;;40.97;25.75;;;3.90;99.90;;;;;;5043460;28;20238;-82
2021/01/04 09:27:05;;;;;;;38.83;25.92;;;4.00;99.90;;;;;;5058631;28;20728;-75
2021/01/04 09:29:36;;;;;;;40.08;23.40;;;3.60;99.90;;;;;;5056459;28;20214;-83
2021/01/04 09:32:08;;;;;;;42.50;23.70;;;3.60;99.90;;;;;;5056681;28;20305;-83
2021/01/04 09:34:35;;;;;;;39.97;22.13;;;3.80;99.90;;;;;;5059453;28;20238;-86
2021/01/04 09:37:06;;;;;;;42.70;24.45;;;4.00;99.90;;;;;;5041837;28;20196;-76
2021/01/04 09:39:35;;;;;;;42.80;21.42;;;4.00;99.90;;;;;;5031078;28;20211;-79
2021/01/04 09:42:05;;;;;;;36.63;23.50;;;3.80;99.90;;;;;;5035057;28;20681;-77
2021/01/04 09:44:32;;;;;;;37.17;19.10;;;3.80;99.90;;;;;;5034378;28;20223;-79
2021/01/04 09:47:03;;;;;;;38.63;21.40;;;4.00;99.90;;;;;;5031810;28;20696;-79
2021/01/04 09:49:35;;;;;;;37.25;21.42;;;4.00;99.90;;;;;;5017404;28;20203;-79
2021/01/04 09:52:06;;;;;;;38.60;21.33;;;4.10;99.90;;;;;;5031274;28;20195;-84
2021/01/04 09:54:39;;;;;;;45.53;24.42;;;3.80;99.90;;;;;;5035353;28;20415;-84
2021/01/04 09:57:08;;;;;;;39.30;23.77;;;3.90;99.90;;;;;;5034350;28;20594;-83
2021/01/04 09:59:41;;;;;;;36.17;21.60;;;3.90;99.90;;;;;;5033894;28;20211;-84
2021/01/04 10:02:15;;;;;;;38.33;21.05;;;3.90;99.90;;;;;;5034208;28;20195;-83
2021/01/04 10:04:42;;;;;;;39.70;23.50;;;3.80;99.90;;;;;;5034468;28;20218;-84
2021/01/04 10:07:15;;;;;;;44.40;24.88;;;3.60;99.90;;;;;;5020728;28;20250;-84
2021/01/04 10:09:44;;;;;;;41.45;22.52;;;3.70;99.90;;;;;;5028463;28;20653;-84
2021/01/04 10:12:16;;;;;;;38.38;23.55;;;3.90;99.90;;;;;;5033685;28;20542;-84
2021/01/04 10:14:44;;;;;;;35.28;21.35;;;4.00;99.90;;;;;;5033365;28;20231;-84
2021/01/04 10:17:12;;;;;;;37.40;21.90;;;3.90;99.90;;;;;;5034370;28;20195;-82
2021/01/04 10:19:43;;;;;;;33.22;19.27;;;4.00;99.90;;;;;;5041031;28;20207;-85
2021/01/04 10:22:15;;;;;;;31.13;19.88;;;4.30;99.90;;;;;;5033821;28;20227;-85
2021/01/04 10:24:54;;;;;;;37.83;23.02;;;4.30;99.90;;;;;;5032194;28;20231;-82
2021/01/04 10:27:24;;;;;;;37.83;23.02;;;4.00;99.90;;;;;;5033180;28;20596;-83
2021/01/04 10:29:53;;;;;;;36.55;22.27;;;4.00;99.90;;;;;;5033680;28;20195;-84
2021/01/04 10:32:23;;;;;;;36.17;21.40;;;4.00;99.90;;;;;;5024316;28;20295;-83
2021/01/04 10:34:51;;;;;;;31.08;20.25;;;4.30;99.90;;;;;;5035049;28;20242;-83
2021/01/04 10:37:32;;;;;;;41.35;22.92;;;4.30;99.90;;;;;;5034174;28;20578;-82
2021/01/04 10:40:01;;;;;;;37.13;21.02;;;4.30;99.90;;;;;;5035184;28;20195;-82
2021/01/04 10:42:28;;;;;;;35.38;21.30;;;4.00;99.90;;;;;;5033938;28;20621;-82
2021/01/04 10:45:24;;;;;;;39.60;22.15;;;4.10;99.90;;;;;;5033890;28;20654;-83
2021/01/04 10:47:57;;;;;;;34.42;20.73;;;4.20;99.90;;;;;;5032338;28;20293;-84
2021/01/04 10:50:33;;;;;;;37.67;21.55;;;4.00;99.90;;;;;;5032361;28;20210;-85
2021/01/04 10:53:03;;;;;;;33.65;21.80;;;3.80;99.90;;;;;;5032519;28;20558;-84
2021/01/04 10:55:32;;;;;;;35.25;21.48;;;4.10;99.90;;;;;;5031956;28;20225;-82
2021/01/04 10:58:11;;;;;;;34.85;20.60;;;4.20;99.90;;;;;;5021337;28;20200;-82
2021/01/04 11:00:47;;;;;;;41.22;22.75;;;4.20;99.90;;;;;;5013351;28;20204;-83
2021/01/04 11:03:17;;;;;;;31.65;22.30;;;4.10;99.90;;;;;;5033046;28;20211;-84
2021/01/04 11:05:47;;;;;;;36.80;21.40;;;4.00;99.90;;;;;;5033027;28;20233;-84
2021/01/04 11:08:31;;;;;;;33.92;21.75;;;4.10;99.90;;;;;;5032154;28;20310;-84
2021/01/04 11:11:01;;;;;;;35.25;20.15;;;4.40;99.90;;;;;;5030240;28;20614;-78
2021/01/04 11:13:30;;;;;;;32.75;20.58;;;4.30;99.90;;;;;;5032157;28;20207;-83
2021/01/04 11:16:13;;;;;;;29.92;15.55;;;4.20;99.90;;;;;;5033691;28;20593;-82
2021/01/04 11:18:51;;;;;;;49.10;27.90;;;4.40;99.90;;;;;;5031696;28;20269;-80
2021/01/04 11:21:19;;;;;;;32.17;17.33;;;4.10;99.90;;;;;;5031620;28;20662;-81
2021/01/04 11:23:46;;;;;;;30.00;18.65;;;3.90;99.90;;;;;;5033113;28;20337;-82
2021/01/04 11:26:13;;;;;;;33.17;19.80;;;4.30;99.90;;;;;;5033640;28;20685;-80
2021/01/04 11:28:39;;;;;;;31.38;20.45;;;4.00;99.90;;;;;;5031454;28;20223;-78
2021/01/04 11:31:06;;;;;;;27.05;17.95;;;4.20;99.90;;;;;;5030889;28;20274;-78
2021/01/04 11:33:33;;;;;;;28.40;16.70;;;4.40;99.90;;;;;;5030447;28;20199;-78
2021/01/04 11:35:59;;;;;;;30.10;19.05;;;4.30;99.90;;;;;;5032942;28;20246;-77
2021/01/04 11:38:27;;;;;;;31.98;18.02;;;4.30;99.90;;;;;;5037695;28;20591;-77
2021/01/04 11:40:55;;;;;;;30.20;17.42;;;4.20;99.90;;;;;;5046147;28;20282;-80
2021/01/04 11:43:23;;;;;;;26.85;17.90;;;4.50;99.90;;;;;;5022804;28;20219;-80
2021/01/04 11:45:50;;;;;;;30.58;14.63;;;4.40;99.90;;;;;;5019750;28;20280;-82
2021/01/04 11:48:17;;;;;;;30.52;18.35;;;4.40;99.90;;;;;;5021451;28;20220;-79
2021/01/04 11:50:44;;;;;;;28.23;17.55;;;4.50;99.90;;;;;;5017248;28;20309;-75
2021/01/04 11:53:10;;;;;;;27.60;17.85;;;4.60;99.90;;;;;;5038975;28;20210;-80
2021/01/04 11:55:37;;;;;;;25.55;16.42;;;4.30;99.90;;;;;;5051476;28;20215;-80
2021/01/04 11:58:05;;;;;;;29.30;17.80;;;4.40;99.90;;;;;;5057737;28;20812;-80
2021/01/04 12:00:31;;;;;;;22.85;13.35;;;4.40;99.90;;;;;;5040887;28;20308;-75
2021/01/04 12:02:58;;;;;;;19.10;13.38;;;4.30;99.90;;;;;;5028820;28;20590;-76
2021/01/04 12:05:25;;;;;;;20.33;13.27;;;4.30;99.90;;;;;;5028848;28;20231;-77
2021/01/04 12:07:51;;;;;;;17.98;11.35;;;4.30;99.90;;;;;;5019782;28;20622;-75
2021/01/04 12:10:19;;;;;;;20.45;11.35;;;4.50;99.90;;;;;;5029234;28;20211;-76
2021/01/04 12:12:45;;;;;;;19.63;12.15;;;4.40;99.90;;;;;;5029473;28;20714;-76
2021/01/04 12:15:15;;;;;;;16.60;10.82;;;4.40;99.90;;;;;;5037312;28;20219;-75
2021/01/04 12:17:41;;;;;;;18.60;10.45;;;4.50;99.90;;;;;;5014181;28;20200;-75
2021/01/04 12:20:10;;;;;;;17.52;10.40;;;4.40;99.90;;;;;;5016415;28;20203;-76
2021/01/04 12:22:36;;;;;;;23.77;12.15;;;4.40;99.90;;;;;;5036029;28;20210;-79
2021/01/04 12:25:04;;;;;;;22.25;11.43;;;4.50;99.90;;;;;;5038519;28;20226;-79
2021/01/04 12:27:30;;;;;;;21.17;13.52;;;4.60;99.90;;;;;;5032624;28;20215;-76
2021/01/04 12:29:57;;;;;;;22.35;12.27;;;4.50;99.90;;;;;;5034055;28;20207;-81
2021/01/04 12:32:25;;;;;;;17.63;12.20;;;4.50;99.90;;;;;;5034170;28;20273;-86
2021/01/04 12:34:51;;;;;;;23.05;12.00;;;4.50;99.90;;;;;;5016691;28;20534;-77
2021/01/04 12:37:18;;;;;;;24.10;13.23;;;4.30;99.90;;;;;;5037128;28;20199;-89
2021/01/04 12:39:45;;;;;;;24.73;13.70;;;4.30;99.90;;;;;;5041935;28;20276;-80
2021/01/04 12:42:11;;;;;;;20.25;14.95;;;4.10;99.90;;;;;;5044229;28;20203;-80
2021/01/04 12:44:38;;;;;;;22.20;13.30;;;4.10;99.90;;;;;;5040207;28;20312;-80
2021/01/04 12:47:07;;;;;;;17.92;12.43;;;4.20;99.90;;;;;;5040382;28;20587;-80
2021/01/04 12:49:35;;;;;;;20.48;11.43;;;4.20;99.90;;;;;;5043048;28;20207;-80
2021/01/04 12:52:02;;;;;;;22.58;14.50;;;4.20;99.90;;;;;;5042639;28;20229;-80
2021/01/04 12:54:31;;;;;;;23.70;13.75;;;4.00;99.90;;;;;;5042981;28;20231;-80
2021/01/04 12:57:01;;;;;;;24.33;11.68;;;3.90;99.90;;;;;;5043198;28;20208;-80
2021/01/04 12:59:28;;;;;;;20.73;11.80;;;4.40;99.90;;;;;;5036259;28;20607;-80
2021/01/04 13:01:56;;;;;;;20.35;11.70;;;4.40;99.90;;;;;;5043010;28;20204;-80
2021/01/04 13:04:25;;;;;;;26.15;16.27;;;4.50;99.90;;;;;;5041811;28;20242;-80
2021/01/04 13:06:53;;;;;;;27.98;15.45;;;4.40;99.90;;;;;;5041831;28;20226;-80
2021/01/04 13:09:21;;;;;;;21.33;14.35;;;4.10;99.90;;;;;;5042564;28;20207;-80
2021/01/04 13:11:48;;;;;;;22.67;13.32;;;4.10;99.90;;;;;;5042453;28;20526;-79
2021/01/04 13:14:16;;;;;;;25.40;15.52;;;4.00;99.90;;;;;;5043181;28;20231;-80
2021/01/04 13:16:43;;;;;;;30.25;12.55;;;3.90;99.90;;;;;;5046645;28;20327;-81
2021/01/04 13:19:10;;;;;;;31.40;15.73;;;4.00;99.90;;;;;;5043892;28;20568;-80
2021/01/04 13:21:38;;;;;;;27.42;14.15;;;4.00;99.90;;;;;;5040388;28;20218;-80